Time;durP1;ratioP1;P1;durP2;ratioP2;P2;SDS_P1;SDS_P2;PMS_P1;PMS_P2;Temp;Humidity;BMP_temperature;BMP_pressure;BME280_temperature;BME280_humidity;BME280_pressure;Samples;Min_cycle;Max_cycle;Signal;HPM_P1;HPM_P2
2023/07/05 00:02:38;;;;;;;4.63;1.77;;;;;;;;;;6024155;29;20251;-70
2023/07/05 00:05:43;;;;;;;1.70;1.60;;;;;;;;;;6024206;29;20563;-69
2023/07/05 00:08:48;;;;;;;5.75;1.70;;;;;;;;;;6024291;29;20271;-70
2023/07/05 00:11:52;;;;;;;7.50;3.13;;;;;;;;;;6024121;29;20239;-69
2023/07/05 00:14:58;;;;;;;3.13;2.10;;;;;;;;;;6024030;29;20519;-69
2023/07/05 00:18:03;;;;;;;3.05;1.80;;;;;;;;;;6023695;29;20307;-69
2023/07/05 00:21:09;;;;;;;5.07;1.88;;;;;;;;;;6023803;29;20256;-69
2023/07/05 00:24:16;;;;;;;2.15;1.90;;;;;;;;;;6023597;29;20543;-69
2023/07/05 00:27:20;;;;;;;5.72;1.50;;;;;;;;;;6023576;29;20243;-69
2023/07/05 00:30:26;;;;;;;2.38;1.50;;;;;;;;;;6022120;29;20282;-69
2023/07/05 00:33:31;;;;;;;1.63;1.50;;;;;;;;;;6023641;29;20266;-70
2023/07/05 00:36:36;;;;;;;4.22;1.95;;;;;;;;;;6021320;29;20289;-70
2023/07/05 00:39:41;;;;;;;2.40;1.85;;;;;;;;;;6021776;29;20318;-70
2023/07/05 00:42:46;;;;;;;8.70;2.10;;;;;;;;;;6023457;29;20528;-69
2023/07/05 00:45:56;;;;;;;4.88;1.70;;;;;;;;;;6022174;29;20282;-69
2023/07/05 00:49:04;;;;;;;3.67;1.40;;;;;;;;;;6023268;29;20332;-71
2023/07/05 00:52:14;;;;;;;2.72;1.90;;;;;;;;;;6023342;29;20243;-69
2023/07/05 00:55:19;;;;;;;2.42;2.17;;;;;;;;;;6006796;29;20272;-69
2023/07/05 00:58:24;;;;;;;4.65;1.45;;;;;;;;;;6022495;29;20271;-69
2023/07/05 01:01:31;;;;;;;4.35;2.00;;;;;;;;;;6022966;29;20271;-69
2023/07/05 01:04:37;;;;;;;5.45;1.75;;;;;;;;;;6023100;29;20252;-69
2023/07/05 01:07:42;;;;;;;1.95;1.48;;;;;;;;;;6014107;29;20279;-70
2023/07/05 01:10:53;;;;;;;1.85;1.70;;;;;;;;;;6000484;29;20271;-70
2023/07/05 01:14:06;;;;;;;6.18;1.70;;;;;;;;;;6000773;29;20247;-68
2023/07/05 01:17:18;;;;;;;3.42;1.80;;;;;;;;;;5999924;29;20292;-70
2023/07/05 01:20:31;;;;;;;5.10;1.90;;;;;;;;;;6000367;29;20267;-69
2023/07/05 01:24:02;;;;;;;5.55;1.70;;;;;;;;;;6000179;29;20251;-70
2023/07/05 01:27:55;;;;;;;1.75;1.60;;;;;;;;;;5999670;29;20242;-68
2023/07/05 01:31:39;;;;;;;2.97;1.90;;;;;;;;;;5931653;29;20446;-70
2023/07/05 01:34:49;;;;;;;2.17;1.80;;;;;;;;;;6000208;29;20309;-70
2023/07/05 01:37:55;;;;;;;2.20;2.10;;;;;;;;;;5999816;29;20259;-70
2023/07/05 01:41:03;;;;;;;8.13;2.33;;;;;;;;;;5999946;29;20267;-68
2023/07/05 01:44:08;;;;;;;1.95;1.92;;;;;;;;;;5999816;29;20289;-70
2023/07/05 01:47:18;;;;;;;4.68;2.03;;;;;;;;;;5983661;29;20274;-69
2023/07/05 01:50:28;;;;;;;3.63;1.80;;;;;;;;;;6000074;29;20538;-70
2023/07/05 01:53:37;;;;;;;2.28;1.83;;;;;;;;;;5999907;29;20244;-70
2023/07/05 01:56:49;;;;;;;5.25;2.08;;;;;;;;;;5999810;29;20256;-69
2023/07/05 02:00:05;;;;;;;6.00;2.00;;;;;;;;;;5998146;29;20299;-69
2023/07/05 02:03:17;;;;;;;5.63;2.17;;;;;;;;;;6006938;29;20426;-70
2023/07/05 02:06:23;;;;;;;2.42;2.22;;;;;;;;;;5984431;29;20279;-70
2023/07/05 02:09:28;;;;;;;2.42;1.92;;;;;;;;;;6022094;29;20255;-70
2023/07/05 02:12:33;;;;;;;1.55;1.52;;;;;;;;;;6020509;29;20299;-69
2023/07/05 02:15:38;;;;;;;2.15;1.80;;;;;;;;;;6021919;29;20458;-71
2023/07/05 02:18:44;;;;;;;1.67;1.63;;;;;;;;;;6022241;29;20255;-69
2023/07/05 02:21:49;;;;;;;1.83;1.70;;;;;;;;;;6005264;29;20279;-70
2023/07/05 02:24:54;;;;;;;1.73;1.73;;;;;;;;;;6020355;29;20278;-69
2023/07/05 02:27:59;;;;;;;1.83;1.73;;;;;;;;;;6005003;29;20279;-70
2023/07/05 02:31:11;;;;;;;1.50;1.50;;;;;;;;;;6022136;29;20254;-70
2023/07/05 02:34:18;;;;;;;2.10;2.00;;;;;;;;;;6022073;29;20247;-69
2023/07/05 02:37:23;;;;;;;5.97;2.35;;;;;;;;;;6020096;29;20421;-68
2023/07/05 02:40:28;;;;;;;2.15;2.08;;;;;;;;;;6025034;29;20266;-68
2023/07/05 02:43:34;;;;;;;2.20;2.10;;;;;;;;;;6025840;29;20468;-69
2023/07/05 02:46:38;;;;;;;2.03;1.92;;;;;;;;;;6026072;29;20267;-70
2023/07/05 02:49:44;;;;;;;2.95;2.00;;;;;;;;;;6024953;29;20290;-69
2023/07/05 02:52:49;;;;;;;2.47;2.03;;;;;;;;;;6024136;29;20278;-69
2023/07/05 02:55:56;;;;;;;3.25;2.30;;;;;;;;;;6025828;29;20247;-69
2023/07/05 02:59:01;;;;;;;2.10;2.10;;;;;;;;;;6025613;29;20246;-70
2023/07/05 03:02:06;;;;;;;2.00;1.90;;;;;;;;;;6025544;29;20310;-69
2023/07/05 03:05:15;;;;;;;4.15;2.30;;;;;;;;;;6025534;29;20259;-69
2023/07/05 03:08:20;;;;;;;2.55;2.35;;;;;;;;;;6009617;29;20248;-70
2023/07/05 03:11:25;;;;;;;2.47;2.33;;;;;;;;;;6016644;29;20287;-70
2023/07/05 03:14:29;;;;;;;2.47;2.35;;;;;;;;;;6002700;29;20402;-68
2023/07/05 03:17:34;;;;;;;2.92;2.60;;;;;;;;;;6002317;29;20288;-70
2023/07/05 03:20:41;;;;;;;2.83;2.60;;;;;;;;;;6003932;29;20275;-69
2023/07/05 03:23:45;;;;;;;2.80;2.60;;;;;;;;;;6002545;29;20252;-70
2023/07/05 03:26:52;;;;;;;3.55;2.90;;;;;;;;;;6002266;29;20263;-70
2023/07/05 03:29:57;;;;;;;2.97;2.88;;;;;;;;;;6002237;29;20417;-71
2023/07/05 03:33:02;;;;;;;4.97;2.90;;;;;;;;;;6016736;29;20556;-69
2023/07/05 03:36:11;;;;;;;3.10;2.83;;;;;;;;;;6015820;29;20473;-69
2023/07/05 03:39:16;;;;;;;3.78;2.60;;;;;;;;;;5986252;29;20555;-68
2023/07/05 03:42:20;;;;;;;4.32;2.50;;;;;;;;;;6001818;29;20243;-70
2023/07/05 03:45:25;;;;;;;2.95;2.75;;;;;;;;;;5985290;29;20402;-70
2023/07/05 03:48:32;;;;;;;3.25;3.03;;;;;;;;;;6001645;29;20328;-69
2023/07/05 03:51:38;;;;;;;3.65;2.75;;;;;;;;;;6001453;29;20267;-69
2023/07/05 03:54:43;;;;;;;2.90;2.60;;;;;;;;;;5985513;29;20393;-70
2023/07/05 03:57:47;;;;;;;3.35;2.97;;;;;;;;;;6002073;29;20251;-69
2023/07/05 04:00:51;;;;;;;3.10;2.80;;;;;;;;;;6001362;29;20473;-69
2023/07/05 04:03:58;;;;;;;5.53;3.00;;;;;;;;;;6001557;29;20248;-69
2023/07/05 04:07:04;;;;;;;3.15;2.92;;;;;;;;;;6007916;29;20334;-69
2023/07/05 04:10:10;;;;;;;4.72;2.88;;;;;;;;;;6024030;29;20539;-69
2023/07/05 04:13:14;;;;;;;10.30;3.67;;;;;;;;;;6024267;29;20318;-69
2023/07/05 04:16:21;;;;;;;5.47;3.58;;;;;;;;;;6023736;29;20302;-69
2023/07/05 04:19:26;;;;;;;5.40;3.22;;;;;;;;;;6024317;29;20457;-69
2023/07/05 04:22:35;;;;;;;5.25;3.63;;;;;;;;;;6023643;29;20275;-69
2023/07/05 04:25:40;;;;;;;9.10;3.38;;;;;;;;;;6024216;29;20275;-69
2023/07/05 04:28:45;;;;;;;3.72;3.22;;;;;;;;;;6023584;29;20283;-69
2023/07/05 04:31:49;;;;;;;7.93;3.65;;;;;;;;;;6023745;29;20346;-70
2023/07/05 04:34:54;;;;;;;7.68;3.53;;;;;;;;;;6023400;29;20251;-70
2023/07/05 04:38:00;;;;;;;5.45;3.90;;;;;;;;;;6023436;29;20270;-69
2023/07/05 04:41:05;;;;;;;8.88;3.60;;;;;;;;;;6023713;29;20266;-70
2023/07/05 04:44:09;;;;;;;10.88;3.88;;;;;;;;;;6023734;29;20247;-69
2023/07/05 04:47:14;;;;;;;7.78;3.65;;;;;;;;;;6023283;29;20242;-69
2023/07/05 04:50:19;;;;;;;5.72;3.78;;;;;;;;;;6023024;29;20484;-69
2023/07/05 04:53:27;;;;;;;8.80;4.18;;;;;;;;;;6023727;29;20248;-69
2023/07/05 04:56:32;;;;;;;7.07;4.03;;;;;;;;;;6023659;29;20319;-69
2023/07/05 04:59:36;;;;;;;5.55;3.90;;;;;;;;;;6023218;29;20260;-69
2023/07/05 05:02:41;;;;;;;11.32;4.10;;;;;;;;;;6022190;29;20271;-70
2023/07/05 05:05:46;;;;;;;9.88;4.38;;;;;;;;;;6022675;29;20255;-70
2023/07/05 05:08:52;;;;;;;11.00;4.10;;;;;;;;;;6003389;29;20259;-69
2023/07/05 05:11:57;;;;;;;8.10;3.95;;;;;;;;;;5984229;29;20283;-69
2023/07/05 05:15:02;;;;;;;10.45;4.10;;;;;;;;;;6000001;29;20252;-70
2023/07/05 05:18:07;;;;;;;10.30;4.20;;;;;;;;;;5999908;29;20304;-69
2023/07/05 05:21:11;;;;;;;14.73;4.30;;;;;;;;;;5999784;29;20275;-69
2023/07/05 05:24:18;;;;;;;6.90;3.78;;;;;;;;;;6000335;29;20396;-68
2023/07/05 05:27:22;;;;;;;11.43;4.53;;;;;;;;;;5999791;29;20260;-69
2023/07/05 05:30:27;;;;;;;6.65;3.65;;;;;;;;;;5999902;29;20251;-68
2023/07/05 05:33:32;;;;;;;11.20;4.65;;;;;;;;;;5999882;29;20248;-69
2023/07/05 05:36:36;;;;;;;16.52;4.15;;;;;;;;;;5999759;29;20278;-69
2023/07/05 05:39:42;;;;;;;8.05;3.50;;;;;;;;;;5999646;29;20505;-69
2023/07/05 05:42:48;;;;;;;5.20;3.70;;;;;;;;;;5999452;29;20276;-70
2023/07/05 05:45:53;;;;;;;11.25;3.50;;;;;;;;;;5999670;29;20256;-69
2023/07/05 05:48:57;;;;;;;12.13;4.10;;;;;;;;;;5999543;29;20252;-71
2023/07/05 05:52:02;;;;;;;5.65;3.60;;;;;;;;;;6000000;29;20249;-69
2023/07/05 05:55:10;;;;;;;10.45;3.40;;;;;;;;;;5999644;29;20247;-69
2023/07/05 05:58:14;;;;;;;12.48;3.78;;;;;;;;;;6000956;29;20452;-71
2023/07/05 06:01:19;;;;;;;5.55;3.28;;;;;;;;;;5999079;29;20292;-69
2023/07/05 06:04:24;;;;;;;12.30;4.13;;;;;;;;;;5999490;29;20246;-71
2023/07/05 06:07:29;;;;;;;9.55;3.20;;;;;;;;;;6008626;29;20251;-70
2023/07/05 06:10:35;;;;;;;14.15;3.55;;;;;;;;;;6022121;29;20535;-69
2023/07/05 06:13:40;;;;;;;7.75;3.38;;;;;;;;;;6024636;29;20480;-69
2023/07/05 06:16:45;;;;;;;7.05;3.25;;;;;;;;;;6026322;29;20298;-70
2023/07/05 06:19:49;;;;;;;8.73;3.55;;;;;;;;;;6026439;29;20534;-69
2023/07/05 06:22:54;;;;;;;11.90;3.30;;;;;;;;;;6026415;29;20279;-69
2023/07/05 06:26:00;;;;;;;8.07;3.13;;;;;;;;;;6027968;29;20250;-70
2023/07/05 06:29:04;;;;;;;7.95;3.30;;;;;;;;;;6026134;29;20389;-68
2023/07/05 06:32:09;;;;;;;10.57;3.33;;;;;;;;;;6025913;29;20266;-69
2023/07/05 06:35:14;;;;;;;8.68;3.40;;;;;;;;;;6026413;29;20246;-70
2023/07/05 06:38:18;;;;;;;4.28;2.78;;;;;;;;;;6025910;29;20258;-69
2023/07/05 06:41:24;;;;;;;7.18;3.33;;;;;;;;;;6026241;29;20508;-69
2023/07/05 06:44:29;;;;;;;6.90;3.15;;;;;;;;;;6025886;29;20350;-69
2023/07/05 06:47:33;;;;;;;8.68;3.33;;;;;;;;;;6025785;29;20243;-69
2023/07/05 06:50:38;;;;;;;4.50;2.70;;;;;;;;;;6026122;29;20247;-68
2023/07/05 06:53:43;;;;;;;4.35;2.80;;;;;;;;;;6025617;29;20243;-70
2023/07/05 06:56:55;;;;;;;8.02;3.00;;;;;;;;;;6025401;29;20247;-69
2023/07/05 07:00:00;;;;;;;5.25;2.40;;;;;;;;;;6025553;29;20243;-70
2023/07/05 07:03:05;;;;;;;3.35;2.53;;;;;;;;;;6025700;29;20267;-68
2023/07/05 07:06:10;;;;;;;5.63;2.67;;;;;;;;;;6024245;29;20283;-69
2023/07/05 07:09:15;;;;;;;7.32;2.70;;;;;;;;;;5980454;29;20524;-69
2023/07/05 07:12:20;;;;;;;2.72;2.53;;;;;;;;;;5979948;29;20256;-69
2023/07/05 07:15:25;;;;;;;5.35;2.55;;;;;;;;;;5979718;29;20244;-71
2023/07/05 07:18:30;;;;;;;2.72;2.35;;;;;;;;;;5979628;29;20244;-70
2023/07/05 07:21:34;;;;;;;2.92;2.53;;;;;;;;;;5979643;29;20248;-69
2023/07/05 07:24:39;;;;;;;4.07;2.30;;;;;;;;;;5979066;29;20445;-69
2023/07/05 07:27:45;;;;;;;3.85;2.20;;;;;;;;;;5979416;29;20248;-69
2023/07/05 07:30:50;;;;;;;4.25;2.40;;;;;;;;;;5979781;29;20256;-70
2023/07/05 07:33:55;;;;;;;3.38;3.17;;;;;;;;;;5979576;29;20268;-70
2023/07/05 07:36:59;;;;;;;2.60;2.38;;;;;;;;;;5979729;29;20269;-69
2023/07/05 07:40:06;;;;;;;4.13;2.30;;;;;;;;;;5979571;29;20240;-69
2023/07/05 07:43:12;;;;;;;4.35;3.30;;;;;;;;;;5979440;29;20540;-71
2023/07/05 07:46:18;;;;;;;2.53;2.33;;;;;;;;;;5979491;29;20262;-70
2023/07/05 07:49:23;;;;;;;3.75;2.20;;;;;;;;;;5979743;29;20240;-70
2023/07/05 07:52:27;;;;;;;2.67;2.40;;;;;;;;;;5979584;29;20434;-69
2023/07/05 07:55:32;;;;;;;7.05;2.70;;;;;;;;;;5979032;29;20380;-69
2023/07/05 07:58:38;;;;;;;5.53;2.70;;;;;;;;;;5979071;29;20244;-70
2023/07/05 08:01:43;;;;;;;2.20;1.98;;;;;;;;;;5979113;29;20245;-70
2023/07/05 08:04:47;;;;;;;4.40;2.30;;;;;;;;;;5979490;29;20288;-69
2023/07/05 08:07:52;;;;;;;5.50;2.83;;;;;;;;;;6003705;29;20247;-69
2023/07/05 08:10:57;;;;;;;2.55;2.35;;;;;;;;;;6024120;29;20242;-71
2023/07/05 08:14:03;;;;;;;6.82;2.17;;;;;;;;;;6024003;29;20255;-70
2023/07/05 08:17:07;;;;;;;4.30;2.47;;;;;;;;;;6023902;29;20295;-69
2023/07/05 08:20:13;;;;;;;4.85;2.42;;;;;;;;;;6024000;29;20251;-70
2023/07/05 08:23:18;;;;;;;6.47;2.55;;;;;;;;;;6022090;29;20313;-69
2023/07/05 08:26:22;;;;;;;4.38;2.72;;;;;;;;;;6024174;29;20259;-69
2023/07/05 08:29:28;;;;;;;2.72;2.35;;;;;;;;;;6023301;29;20247;-70
2023/07/05 08:32:33;;;;;;;6.13;2.42;;;;;;;;;;6023744;29;20259;-70
2023/07/05 08:35:38;;;;;;;6.68;2.33;;;;;;;;;;6022561;29;20270;-69
2023/07/05 08:38:46;;;;;;;14.02;2.10;;;;;;;;;;6023351;29;20536;-69
2023/07/05 08:42:20;;;;;;;2.42;2.20;;;;;;;;;;6023255;29;20246;-69
2023/07/05 08:45:29;;;;;;;4.63;2.50;;;;;;;;;;6019104;29;20274;-71
2023/07/05 08:48:35;;;;;;;2.92;2.30;;;;;;;;;;6023729;29;20247;-69
2023/07/05 08:51:40;;;;;;;2.47;2.25;;;;;;;;;;6023106;29;20260;-70
2023/07/05 08:54:45;;;;;;;5.57;2.50;;;;;;;;;;6024085;29;20271;-70
2023/07/05 08:57:53;;;;;;;2.55;2.42;;;;;;;;;;6023547;29;20252;-70
2023/07/05 09:01:03;;;;;;;5.32;2.78;;;;;;;;;;6022970;29;20244;-73
2023/07/05 09:04:12;;;;;;;2.67;2.20;;;;;;;;;;6023365;29;20274;-70
2023/07/05 09:07:23;;;;;;;10.68;3.05;;;;;;;;;;6014984;29;20239;-70
2023/07/05 09:10:34;;;;;;;4.53;2.30;;;;;;;;;;6000279;29;20243;-71
2023/07/05 09:13:40;;;;;;;5.15;2.63;;;;;;;;;;6000261;29;20277;-70
2023/07/05 09:16:52;;;;;;;2.95;2.67;;;;;;;;;;6000655;29;20295;-69
2023/07/05 09:20:05;;;;;;;4.72;3.13;;;;;;;;;;6000236;29;20251;-70
2023/07/05 09:23:15;;;;;;;2.60;2.30;;;;;;;;;;6000563;29;20273;-69
2023/07/05 09:26:25;;;;;;;4.32;2.75;;;;;;;;;;6000327;29;20256;-70
2023/07/05 09:29:32;;;;;;;5.93;2.92;;;;;;;;;;6000656;29;20248;-70
2023/07/05 09:32:39;;;;;;;7.30;2.80;;;;;;;;;;6000305;29;20247;-70
2023/07/05 09:35:45;;;;;;;7.25;2.28;;;;;;;;;;6000677;29;20248;-71
2023/07/05 09:38:53;;;;;;;5.78;2.50;;;;;;;;;;6000550;29;20432;-70
2023/07/05 09:41:59;;;;;;;7.65;2.60;;;;;;;;;;5999935;29;20248;-69
2023/07/05 09:45:05;;;;;;;5.90;3.20;;;;;;;;;;5999977;29;20264;-70
2023/07/05 09:48:13;;;;;;;9.13;2.85;;;;;;;;;;6001557;29;20244;-70
2023/07/05 09:51:19;;;;;;;5.70;2.85;;;;;;;;;;6004000;29;20263;-71
2023/07/05 09:54:26;;;;;;;7.35;2.50;;;;;;;;;;6004433;29;20252;-70
2023/07/05 09:57:30;;;;;;;2.67;2.42;;;;;;;;;;6004697;29;20244;-70
2023/07/05 10:00:36;;;;;;;7.80;3.05;;;;;;;;;;6004489;29;20256;-70
2023/07/05 10:03:52;;;;;;;4.45;2.72;;;;;;;;;;6004311;29;20274;-70
2023/07/05 10:07:00;;;;;;;2.88;2.63;;;;;;;;;;6009683;29;20247;-71
2023/07/05 10:10:10;;;;;;;5.32;2.60;;;;;;;;;;6026780;29;20265;-70
2023/07/05 10:13:16;;;;;;;3.40;2.58;;;;;;;;;;6027099;29;20252;-70
2023/07/05 10:16:21;;;;;;;6.22;2.95;;;;;;;;;;6027128;29;20290;-69
2023/07/05 10:19:32;;;;;;;4.90;2.80;;;;;;;;;;6026846;29;20252;-70
2023/07/05 10:22:37;;;;;;;4.63;2.35;;;;;;;;;;6026659;29;20244;-69
2023/07/05 10:25:42;;;;;;;3.92;2.78;;;;;;;;;;6026433;29;20274;-70
2023/07/05 10:28:47;;;;;;;6.80;2.60;;;;;;;;;;6026489;29;20250;-70
2023/07/05 10:31:57;;;;;;;6.72;2.70;;;;;;;;;;6026328;29;20255;-69
2023/07/05 10:35:13;;;;;;;7.40;2.97;;;;;;;;;;6026007;29;20263;-71
2023/07/05 10:38:26;;;;;;;4.40;2.60;;;;;;;;;;6026491;29;20263;-70
2023/07/05 10:41:33;;;;;;;10.98;3.60;;;;;;;;;;6025793;29;20239;-70
2023/07/05 10:44:40;;;;;;;9.18;3.45;;;;;;;;;;6025542;29;20274;-70
2023/07/05 10:47:47;;;;;;;5.97;3.03;;;;;;;;;;6026002;29;20243;-69
2023/07/05 10:50:53;;;;;;;5.95;2.72;;;;;;;;;;6009496;29;20279;-70
2023/07/05 10:54:03;;;;;;;6.75;2.83;;;;;;;;;;6025483;29;20311;-71
2023/07/05 10:57:15;;;;;;;5.05;2.58;;;;;;;;;;6026756;29;20255;-69
2023/07/05 11:00:28;;;;;;;5.22;2.42;;;;;;;;;;6024994;29;20533;-70
2023/07/05 11:03:42;;;;;;;6.60;2.75;;;;;;;;;;6025873;29;20255;-71
2023/07/05 11:06:50;;;;;;;3.65;2.15;;;;;;;;;;6021219;29;20244;-70
2023/07/05 11:09:54;;;;;;;7.57;2.90;;;;;;;;;;6003041;29;20255;-69
2023/07/05 11:12:59;;;;;;;4.55;2.70;;;;;;;;;;6003704;29;20248;-70
2023/07/05 11:16:04;;;;;;;3.63;2.40;;;;;;;;;;5996301;29;20304;-70
2023/07/05 11:19:13;;;;;;;2.80;2.60;;;;;;;;;;5979988;29;20371;-70
2023/07/05 11:22:38;;;;;;;2.78;2.55;;;;;;;;;;5980942;29;20416;-70
2023/07/05 11:26:00;;;;;;;6.97;2.65;;;;;;;;;;5979764;29;20276;-70
2023/07/05 11:29:40;;;;;;;9.00;2.60;;;;;;;;;;5979856;29;20245;-69
2023/07/05 11:33:24;;;;;;;7.75;2.28;;;;;;;;;;5974685;29;20452;-70
2023/07/05 11:36:32;;;;;;;4.60;2.28;;;;;;;;;;5979794;29;20256;-69
2023/07/05 11:39:39;;;;;;;3.10;2.53;;;;;;;;;;5979149;29;20248;-70
2023/07/05 11:42:43;;;;;;;2.13;2.03;;;;;;;;;;5992773;29;20276;-70
2023/07/05 11:45:48;;;;;;;6.30;2.35;;;;;;;;;;5979400;29;20272;-70
2023/07/05 11:48:53;;;;;;;5.30;2.40;;;;;;;;;;5979751;29;20252;-70
2023/07/05 11:52:02;;;;;;;2.60;2.17;;;;;;;;;;5962886;29;20284;-69
2023/07/05 11:55:12;;;;;;;3.90;2.10;;;;;;;;;;5979523;29;20257;-71
2023/07/05 11:58:20;;;;;;;6.15;2.15;;;;;;;;;;5972921;29;20250;-70
2023/07/05 12:01:29;;;;;;;2.63;2.42;;;;;;;;;;5979657;29;20253;-70
2023/07/05 12:04:34;;;;;;;4.95;2.33;;;;;;;;;;5979224;29;20268;-70
2023/07/05 12:07:39;;;;;;;3.25;2.30;;;;;;;;;;5978600;29;20438;-70
2023/07/05 12:10:52;;;;;;;4.13;2.38;;;;;;;;;;5979127;29;20260;-69
2023/07/05 12:14:01;;;;;;;15.52;2.67;;;;;;;;;;5978976;29;20540;-70
2023/07/05 12:17:12;;;;;;;4.15;2.53;;;;;;;;;;5978834;29;20291;-71
2023/07/05 12:20:42;;;;;;;3.60;2.03;;;;;;;;;;5978738;29;20244;-69
2023/07/05 12:23:48;;;;;;;3.08;2.47;;;;;;;;;;5965983;29;20279;-70
2023/07/05 12:26:56;;;;;;;4.55;2.58;;;;;;;;;;5978710;29;20275;-71
2023/07/05 12:30:03;;;;;;;2.70;2.50;;;;;;;;;;5978527;29;20316;-71
2023/07/05 12:33:21;;;;;;;3.88;2.17;;;;;;;;;;5978814;29;20244;-70
2023/07/05 12:36:27;;;;;;;2.80;2.05;;;;;;;;;;5978642;29;20249;-69
2023/07/05 12:39:31;;;;;;;4.50;2.50;;;;;;;;;;5978592;29;20244;-70
2023/07/05 12:42:48;;;;;;;4.45;2.28;;;;;;;;;;5978814;29;20244;-73
2023/07/05 12:45:52;;;;;;;2.17;2.03;;;;;;;;;;5978330;29;20272;-70
2023/07/05 12:48:58;;;;;;;8.07;2.60;;;;;;;;;;6000610;29;20441;-69
2023/07/05 12:52:02;;;;;;;8.18;2.13;;;;;;;;;;5999536;29;20524;-70
2023/07/05 12:55:25;;;;;;;4.00;2.40;;;;;;;;;;6000947;29;20248;-69
2023/07/05 12:58:31;;;;;;;4.07;2.30;;;;;;;;;;6000421;29;20501;-71
2023/07/05 13:01:40;;;;;;;2.88;1.88;;;;;;;;;;6001038;29;20311;-70
2023/07/05 13:04:46;;;;;;;4.00;2.60;;;;;;;;;;6001062;29;20248;-69
2023/07/05 13:07:53;;;;;;;6.53;2.38;;;;;;;;;;6000348;29;20267;-69
2023/07/05 13:10:58;;;;;;;4.63;2.10;;;;;;;;;;6000450;29;20248;-69
2023/07/05 13:14:07;;;;;;;3.30;2.15;;;;;;;;;;6000708;29;20243;-70
2023/07/05 13:17:18;;;;;;;2.50;2.30;;;;;;;;;;6014997;29;20294;-69
2023/07/05 13:20:23;;;;;;;8.48;2.45;;;;;;;;;;6023324;29;20252;-70
2023/07/05 13:23:31;;;;;;;3.70;2.40;;;;;;;;;;6022478;29;20263;-69
2023/07/05 13:26:37;;;;;;;4.38;1.92;;;;;;;;;;6023728;29;20307;-70
2023/07/05 13:29:43;;;;;;;2.92;1.83;;;;;;;;;;6023227;29;20247;-70
2023/07/05 13:32:52;;;;;;;4.85;2.17;;;;;;;;;;6023621;29;20243;-70
2023/07/05 13:35:56;;;;;;;2.00;1.90;;;;;;;;;;6023654;29;20254;-71
2023/07/05 13:39:01;;;;;;;2.30;2.00;;;;;;;;;;6023060;29;20259;-70
2023/07/05 13:42:06;;;;;;;2.20;2.10;;;;;;;;;;6022937;29;20247;-70
2023/07/05 13:45:16;;;;;;;2.53;2.13;;;;;;;;;;6022331;29;20248;-69
2023/07/05 13:48:21;;;;;;;3.80;1.73;;;;;;;;;;6022994;29;20251;-71
2023/07/05 13:51:29;;;;;;;2.20;1.90;;;;;;;;;;6022370;29;20267;-70
2023/07/05 13:54:33;;;;;;;3.05;2.20;;;;;;;;;;6022440;29;20251;-71
2023/07/05 13:57:38;;;;;;;3.38;2.13;;;;;;;;;;6022154;29;20248;-70
2023/07/05 14:00:45;;;;;;;2.20;2.10;;;;;;;;;;6021899;29;20252;-70
2023/07/05 14:03:51;;;;;;;3.00;2.20;;;;;;;;;;6021814;29;20247;-70
2023/07/05 14:07:05;;;;;;;2.13;1.85;;;;;;;;;;6014260;29;20291;-69
2023/07/05 14:10:12;;;;;;;1.63;1.63;;;;;;;;;;5999838;29;20240;-70
2023/07/05 14:13:19;;;;;;;3.25;1.80;;;;;;;;;;5999439;29;20253;-70
2023/07/05 14:16:26;;;;;;;2.22;2.03;;;;;;;;;;5999389;29;20393;-70
2023/07/05 14:19:30;;;;;;;3.80;2.00;;;;;;;;;;5999690;29;20247;-70
2023/07/05 14:22:35;;;;;;;7.63;2.08;;;;;;;;;;5999270;29;20248;-71
2023/07/05 14:25:43;;;;;;;2.40;1.92;;;;;;;;;;5999232;29;20248;-70
2023/07/05 14:28:48;;;;;;;7.30;2.55;;;;;;;;;;5999085;29;20289;-70
2023/07/05 14:31:53;;;;;;;3.70;2.53;;;;;;;;;;5999152;29;20256;-70
2023/07/05 14:34:58;;;;;;;2.70;2.50;;;;;;;;;;6001875;29;20243;-71
2023/07/05 14:38:03;;;;;;;4.30;2.42;;;;;;;;;;6003320;29;20268;-69
2023/07/05 14:41:10;;;;;;;4.63;2.20;;;;;;;;;;6003195;29;20248;-70
2023/07/05 14:44:15;;;;;;;2.30;2.30;;;;;;;;;;6002930;29;20252;-70
2023/07/05 14:47:21;;;;;;;3.13;2.10;;;;;;;;;;6002882;29;20272;-71
2023/07/05 14:50:26;;;;;;;5.07;2.55;;;;;;;;;;6002849;29;20442;-69
2023/07/05 14:53:31;;;;;;;4.05;2.30;;;;;;;;;;6002847;29;20429;-68
2023/07/05 14:56:36;;;;;;;4.93;2.50;;;;;;;;;;6002882;29;20481;-69
2023/07/05 14:59:41;;;;;;;4.45;2.33;;;;;;;;;;6002736;29;20256;-70
2023/07/05 15:02:48;;;;;;;4.03;2.15;;;;;;;;;;6002430;29;20256;-70
2023/07/05 15:05:53;;;;;;;4.82;2.15;;;;;;;;;;6002344;29;20244;-70
2023/07/05 15:08:57;;;;;;;5.82;2.30;;;;;;;;;;6023309;29;20471;-69
2023/07/05 15:12:03;;;;;;;5.57;2.38;;;;;;;;;;6023778;29;20278;-71
2023/07/05 15:15:18;;;;;;;4.28;2.25;;;;;;;;;;6025577;29;20251;-70
2023/07/05 15:18:24;;;;;;;4.65;2.22;;;;;;;;;;6025418;29;20243;-70
2023/07/05 15:21:28;;;;;;;4.35;2.20;;;;;;;;;;6025100;29;20266;-70
2023/07/05 15:24:33;;;;;;;3.05;2.40;;;;;;;;;;6025081;29;20256;-69
2023/07/05 15:27:38;;;;;;;2.15;2.00;;;;;;;;;;6024819;29;20280;-72
2023/07/05 15:30:42;;;;;;;3.75;2.20;;;;;;;;;;6025436;29;20243;-70
2023/07/05 15:33:48;;;;;;;2.17;2.00;;;;;;;;;;6024815;29;20248;-70
2023/07/05 15:36:53;;;;;;;5.22;2.33;;;;;;;;;;6024988;29;20282;-70
2023/07/05 15:39:57;;;;;;;5.20;2.22;;;;;;;;;;6024968;29;20251;-72
2023/07/05 15:43:02;;;;;;;5.07;2.25;;;;;;;;;;6024637;29;20389;-69
2023/07/05 15:46:07;;;;;;;2.10;2.00;;;;;;;;;;6024066;29;20259;-69
2023/07/05 15:49:16;;;;;;;4.90;2.42;;;;;;;;;;6024588;29;20323;-71
2023/07/05 15:52:21;;;;;;;7.80;2.47;;;;;;;;;;6024535;29;20510;-69
2023/07/05 15:55:27;;;;;;;3.78;2.20;;;;;;;;;;6025441;29;20247;-70
2023/07/05 15:58:32;;;;;;;8.18;2.50;;;;;;;;;;6024618;29;20251;-69
2023/07/05 16:01:37;;;;;;;5.65;2.67;;;;;;;;;;6024547;29;20247;-69
2023/07/05 16:04:43;;;;;;;2.45;2.22;;;;;;;;;;6024029;29;20259;-70
2023/07/05 16:07:48;;;;;;;6.85;3.15;;;;;;;;;;6012297;29;20272;-70
2023/07/05 16:10:53;;;;;;;4.70;2.30;;;;;;;;;;6001176;29;20251;-71
2023/07/05 16:13:58;;;;;;;5.57;2.70;;;;;;;;;;6001478;29;20338;-69
2023/07/05 16:17:03;;;;;;;4.40;2.45;;;;;;;;;;6002357;29;20291;-70
2023/07/05 16:20:10;;;;;;;6.68;2.92;;;;;;;;;;6001425;29;20247;-70
2023/07/05 16:23:16;;;;;;;3.58;2.47;;;;;;;;;;6001686;29;20251;-70
2023/07/05 16:26:20;;;;;;;3.95;2.50;;;;;;;;;;5985727;29;20287;-69
2023/07/05 16:29:25;;;;;;;2.50;2.30;;;;;;;;;;6001157;29;20284;-69
2023/07/05 16:32:30;;;;;;;2.72;2.50;;;;;;;;;;6001254;29;20251;-70
2023/07/05 16:35:37;;;;;;;6.45;2.72;;;;;;;;;;6001001;29;20248;-69
2023/07/05 16:38:42;;;;;;;7.78;2.70;;;;;;;;;;6001641;29;20263;-70
2023/07/05 16:41:48;;;;;;;6.28;3.13;;;;;;;;;;6001213;29;20251;-70
2023/07/05 16:44:53;;;;;;;3.58;2.53;;;;;;;;;;6001248;29;20273;-68
2023/07/05 16:47:57;;;;;;;8.70;2.60;;;;;;;;;;6000884;29;20271;-70
2023/07/05 16:51:04;;;;;;;3.05;2.10;;;;;;;;;;6000755;29;20247;-70
2023/07/05 16:54:08;;;;;;;2.80;2.70;;;;;;;;;;6000876;29;20334;-70
2023/07/05 16:57:13;;;;;;;8.60;3.30;;;;;;;;;;5999650;29;20248;-70
2023/07/05 17:00:18;;;;;;;9.93;2.72;;;;;;;;;;6000918;29;20256;-71
2023/07/05 17:03:23;;;;;;;3.58;2.80;;;;;;;;;;6000767;29;20248;-70
2023/07/05 17:06:32;;;;;;;6.18;2.83;;;;;;;;;;6002274;29;20247;-70
2023/07/05 17:09:37;;;;;;;2.88;2.53;;;;;;;;;;6023073;29;20563;-70
2023/07/05 17:12:43;;;;;;;2.65;2.45;;;;;;;;;;6023103;29;20247;-70
2023/07/05 17:15:47;;;;;;;3.75;2.55;;;;;;;;;;6022648;29;20302;-70
2023/07/05 17:18:52;;;;;;;3.92;2.67;;;;;;;;;;6022488;29;20426;-70
2023/07/05 17:21:59;;;;;;;6.22;2.65;;;;;;;;;;6022426;29;20255;-69
2023/07/05 17:25:05;;;;;;;3.78;2.90;;;;;;;;;;6022517;29;20239;-69
2023/07/05 17:28:10;;;;;;;5.78;2.78;;;;;;;;;;6023052;29;20331;-70
2023/07/05 17:31:16;;;;;;;9.05;3.08;;;;;;;;;;6023088;29;20318;-70
2023/07/05 17:34:22;;;;;;;7.72;3.47;;;;;;;;;;6022613;29;20247;-69
2023/07/05 17:37:28;;;;;;;10.50;3.28;;;;;;;;;;6022497;29;20263;-69
2023/07/05 17:40:32;;;;;;;11.48;3.50;;;;;;;;;;6022058;29;20259;-70
2023/07/05 17:43:37;;;;;;;5.95;3.10;;;;;;;;;;6022311;29;20251;-70
2023/07/05 17:46:44;;;;;;;6.32;2.90;;;;;;;;;;6022366;29;20243;-70
2023/07/05 17:49:49;;;;;;;5.85;3.22;;;;;;;;;;6022165;29;20270;-70
2023/07/05 17:52:55;;;;;;;8.25;3.20;;;;;;;;;;6022139;29;20247;-68
2023/07/05 17:56:00;;;;;;;11.27;4.38;;;;;;;;;;6022134;29;20256;-69
2023/07/05 17:59:04;;;;;;;7.53;2.90;;;;;;;;;;6022101;29;20319;-69
2023/07/05 18:02:11;;;;;;;5.65;2.97;;;;;;;;;;6021887;29;20251;-69
2023/07/05 18:05:16;;;;;;;3.92;2.75;;;;;;;;;;6022521;29;20256;-70
2023/07/05 18:08:22;;;;;;;5.72;3.03;;;;;;;;;;6006260;29;20412;-69
2023/07/05 18:11:27;;;;;;;11.73;4.18;;;;;;;;;;6004136;29;20560;-70
2023/07/05 18:14:31;;;;;;;6.20;5.20;;;;;;;;;;6003820;29;20252;-70
2023/07/05 18:17:36;;;;;;;12.77;4.95;;;;;;;;;;5986873;29;20295;-69
2023/07/05 18:20:46;;;;;;;10.70;3.97;;;;;;;;;;5981367;29;20283;-69
2023/07/05 18:23:52;;;;;;;12.82;3.33;;;;;;;;;;5982694;29;20265;-70
2023/07/05 18:26:57;;;;;;;7.40;4.00;;;;;;;;;;5980974;29;20348;-70
2023/07/05 18:30:03;;;;;;;5.50;3.50;;;;;;;;;;5980963;29;20292;-73
2023/07/05 18:33:07;;;;;;;8.98;3.97;;;;;;;;;;5981166;29;20259;-70
2023/07/05 18:36:15;;;;;;;8.00;4.22;;;;;;;;;;5981149;29;20250;-69
2023/07/05 18:39:21;;;;;;;6.55;4.15;;;;;;;;;;5980718;29;20269;-68
2023/07/05 18:42:26;;;;;;;8.18;4.45;;;;;;;;;;5981394;29;20253;-70